Terminal Aerodrome Forecast
Issued by NWS Detroit/Pontiac, MI

Home | Current Version | Previous Version | Text Only | Print | Product List | Glossary On
Versions: 1 2 3 4 5 6 7 8 9 10 11 12 13 14 15 16 17
000
FTUS43 KDTX 210900 AAB
TAFFNT
TAF AMD
KFNT 210941Z 2110/2206 22006KT 4SM -RA BR SCT010 BKN040
     FM211000 25007KT P6SM BKN015
     FM211400 32012KT P6SM BKN025
      TEMPO 2114/2117 5SM -SHRA BR BKN020
     FM211700 34014KT 5SM -SHRA BKN015
     FM212200 34014G22KT P6SM BKN020
     FM220000 33011KT P6SM BKN025=

USA.gov is the U.S. government's official web portal to all federal, state and local government web resources and services.